sensor_id;sensor_type;location;lat;lon;timestamp;temperature;humidity
27940;DHT22;15275;51.716;14.324;2022-12-18T00:01:27;1.10;79.80
27940;DHT22;15275;51.716;14.324;2022-12-18T00:04:00;1.10;79.80
27940;DHT22;15275;51.716;14.324;2022-12-18T00:06:28;1.10;79.70
27940;DHT22;15275;51.716;14.324;2022-12-18T00:08:56;1.00;79.70
27940;DHT22;15275;51.716;14.324;2022-12-18T00:11:25;1.00;79.70
27940;DHT22;15275;51.716;14.324;2022-12-18T00:13:54;1.00;79.70
27940;DHT22;15275;51.716;14.324;2022-12-18T00:16:23;1.00;79.60
27940;DHT22;15275;51.716;14.324;2022-12-18T00:18:54;1.00;79.60
27940;DHT22;15275;51.716;14.324;2022-12-18T00:21:25;1.00;79.70
27940;DHT22;15275;51.716;14.324;2022-12-18T00:23:52;1.00;79.70
27940;DHT22;15275;51.716;14.324;2022-12-18T00:26:30;1.00;79.70
27940;DHT22;15275;51.716;14.324;2022-12-18T00:29:06;1.00;79.50
27940;DHT22;15275;51.716;14.324;2022-12-18T00:31:37;1.00;79.50
27940;DHT22;15275;51.716;14.324;2022-12-18T00:34:03;0.90;79.40
27940;DHT22;15275;51.716;14.324;2022-12-18T00:36:32;0.90;79.40
27940;DHT22;15275;51.716;14.324;2022-12-18T00:39:00;0.90;79.40
27940;DHT22;15275;51.716;14.324;2022-12-18T00:41:28;0.80;79.40
27940;DHT22;15275;51.716;14.324;2022-12-18T00:44:15;0.80;79.50
27940;DHT22;15275;51.716;14.324;2022-12-18T00:46:43;0.80;79.60
27940;DHT22;15275;51.716;14.324;2022-12-18T00:49:13;0.80;79.80
27940;DHT22;15275;51.716;14.324;2022-12-18T00:51:40;0.80;79.90
27940;DHT22;15275;51.716;14.324;2022-12-18T00:54:06;0.80;79.90
27940;DHT22;15275;51.716;14.324;2022-12-18T00:56:32;0.80;79.90
27940;DHT22;15275;51.716;14.324;2022-12-18T00:58:58;0.80;79.90
27940;DHT22;15275;51.716;14.324;2022-12-18T01:01:24;0.80;79.90
27940;DHT22;15275;51.716;14.324;2022-12-18T01:03:50;0.80;79.80
27940;DHT22;15275;51.716;14.324;2022-12-18T01:06:16;0.80;79.80
27940;DHT22;15275;51.716;14.324;2022-12-18T01:08:43;0.80;79.80
27940;DHT22;15275;51.716;14.324;2022-12-18T01:11:16;0.80;79.80
27940;DHT22;15275;51.716;14.324;2022-12-18T01:13:44;0.80;79.60
27940;DHT22;15275;51.716;14.324;2022-12-18T01:16:14;0.80;79.50
27940;DHT22;15275;51.716;14.324;2022-12-18T01:18:42;0.80;79.50
27940;DHT22;15275;51.716;14.324;2022-12-18T01:21:10;0.70;79.50
27940;DHT22;15275;51.716;14.324;2022-12-18T01:23:37;0.70;79.60
27940;DHT22;15275;51.716;14.324;2022-12-18T01:26:12;0.70;79.60
27940;DHT22;15275;51.716;14.324;2022-12-18T01:28:41;0.70;79.70
27940;DHT22;15275;51.716;14.324;2022-12-18T01:31:21;0.70;79.60
27940;DHT22;15275;51.716;14.324;2022-12-18T01:33:48;0.70;79.60
27940;DHT22;15275;51.716;14.324;2022-12-18T01:36:21;0.60;79.40
27940;DHT22;15275;51.716;14.324;2022-12-18T01:38:49;0.60;79.40
27940;DHT22;15275;51.716;14.324;2022-12-18T01:41:17;0.60;79.30
27940;DHT22;15275;51.716;14.324;2022-12-18T01:43:53;0.50;79.50
27940;DHT22;15275;51.716;14.324;2022-12-18T01:46:25;0.50;79.70
27940;DHT22;15275;51.716;14.324;2022-12-18T01:48:58;0.50;79.70
27940;DHT22;15275;51.716;14.324;2022-12-18T01:51:27;0.50;79.80
27940;DHT22;15275;51.716;14.324;2022-12-18T01:53:54;0.50;79.80
27940;DHT22;15275;51.716;14.324;2022-12-18T01:56:21;0.50;79.90
27940;DHT22;15275;51.716;14.324;2022-12-18T01:58:58;0.50;80.00
27940;DHT22;15275;51.716;14.324;2022-12-18T02:01:26;0.50;80.10
27940;DHT22;15275;51.716;14.324;2022-12-18T02:03:52;0.50;80.00
27940;DHT22;15275;51.716;14.324;2022-12-18T02:06:29;0.50;80.00
27940;DHT22;15275;51.716;14.324;2022-12-18T02:09:16;0.50;80.00
27940;DHT22;15275;51.716;14.324;2022-12-18T02:17:19;0.60;80.00
27940;DHT22;15275;51.716;14.324;2022-12-18T02:23:36;0.50;80.00
27940;DHT22;15275;51.716;14.324;2022-12-18T02:26:30;0.60;79.90
27940;DHT22;15275;51.716;14.324;2022-12-18T02:29:39;0.60;79.90
27940;DHT22;15275;51.716;14.324;2022-12-18T02:32:15;0.60;79.70
27940;DHT22;15275;51.716;14.324;2022-12-18T02:34:46;0.60;80.00
27940;DHT22;15275;51.716;14.324;2022-12-18T02:37:15;0.50;79.90
27940;DHT22;15275;51.716;14.324;2022-12-18T02:39:43;0.60;80.00
27940;DHT22;15275;51.716;14.324;2022-12-18T02:42:12;0.60;80.00
27940;DHT22;15275;51.716;14.324;2022-12-18T02:44:50;0.60;80.00
27940;DHT22;15275;51.716;14.324;2022-12-18T02:47:18;0.60;80.10
27940;DHT22;15275;51.716;14.324;2022-12-18T02:53:09;0.60;80.10
27940;DHT22;15275;51.716;14.324;2022-12-18T02:59:15;0.70;80.00
27940;DHT22;15275;51.716;14.324;2022-12-18T03:02:16;0.70;80.10
27940;DHT22;15275;51.716;14.324;2022-12-18T03:07:57;0.70;80.10
27940;DHT22;15275;51.716;14.324;2022-12-18T03:11:08;0.70;80.00
27940;DHT22;15275;51.716;14.324;2022-12-18T03:13:46;0.70;80.00
27940;DHT22;15275;51.716;14.324;2022-12-18T03:16:24;0.70;80.10
27940;DHT22;15275;51.716;14.324;2022-12-18T03:19:01;0.70;80.00
27940;DHT22;15275;51.716;14.324;2022-12-18T03:21:47;0.70;80.10
27940;DHT22;15275;51.716;14.324;2022-12-18T03:24:17;0.70;80.10
27940;DHT22;15275;51.716;14.324;2022-12-18T03:26:47;0.70;80.10
27940;DHT22;15275;51.716;14.324;2022-12-18T03:29:26;0.70;80.00
27940;DHT22;15275;51.716;14.324;2022-12-18T03:32:08;0.70;80.00
27940;DHT22;15275;51.716;14.324;2022-12-18T03:34:58;0.70;80.00
27940;DHT22;15275;51.716;14.324;2022-12-18T03:37:26;0.70;79.90
27940;DHT22;15275;51.716;14.324;2022-12-18T03:39:52;0.70;79.80
27940;DHT22;15275;51.716;14.324;2022-12-18T03:45:19;0.70;79.90
27940;DHT22;15275;51.716;14.324;2022-12-18T03:50:49;0.70;79.70
27940;DHT22;15275;51.716;14.324;2022-12-18T03:53:42;0.70;79.70
27940;DHT22;15275;51.716;14.324;2022-12-18T03:56:10;0.70;79.50
27940;DHT22;15275;51.716;14.324;2022-12-18T03:58:38;0.60;79.40
27940;DHT22;15275;51.716;14.324;2022-12-18T04:01:11;0.60;79.50
27940;DHT22;15275;51.716;14.324;2022-12-18T04:03:39;0.60;79.60
27940;DHT22;15275;51.716;14.324;2022-12-18T04:06:06;0.60;79.60
27940;DHT22;15275;51.716;14.324;2022-12-18T04:08:33;0.60;79.60
27940;DHT22;15275;51.716;14.324;2022-12-18T04:11:01;0.50;79.50
27940;DHT22;15275;51.716;14.324;2022-12-18T04:13:29;0.50;79.50
27940;DHT22;15275;51.716;14.324;2022-12-18T04:15:58;0.50;79.60
27940;DHT22;15275;51.716;14.324;2022-12-18T04:18:24;0.50;79.60
27940;DHT22;15275;51.716;14.324;2022-12-18T04:20:50;0.40;79.50
27940;DHT22;15275;51.716;14.324;2022-12-18T04:23:16;0.40;79.60
27940;DHT22;15275;51.716;14.324;2022-12-18T04:25:42;0.40;79.60
27940;DHT22;15275;51.716;14.324;2022-12-18T04:28:08;0.40;79.50
27940;DHT22;15275;51.716;14.324;2022-12-18T04:30:34;0.40;79.60
27940;DHT22;15275;51.716;14.324;2022-12-18T04:33:00;0.30;79.70
27940;DHT22;15275;51.716;14.324;2022-12-18T04:35:26;0.30;79.70
27940;DHT22;15275;51.716;14.324;2022-12-18T04:37:52;0.30;79.80
27940;DHT22;15275;51.716;14.324;2022-12-18T04:40:18;0.30;79.90
27940;DHT22;15275;51.716;14.324;2022-12-18T04:42:44;0.30;80.00
27940;DHT22;15275;51.716;14.324;2022-12-18T04:45:10;0.30;80.10
27940;DHT22;15275;51.716;14.324;2022-12-18T04:47:36;0.30;80.20
27940;DHT22;15275;51.716;14.324;2022-12-18T04:50:02;0.30;80.30
27940;DHT22;15275;51.716;14.324;2022-12-18T04:52:31;0.30;80.40
27940;DHT22;15275;51.716;14.324;2022-12-18T04:54:57;0.40;80.40
27940;DHT22;15275;51.716;14.324;2022-12-18T04:57:23;0.40;80.30
27940;DHT22;15275;51.716;14.324;2022-12-18T04:59:49;0.40;80.10
27940;DHT22;15275;51.716;14.324;2022-12-18T05:02:15;0.40;80.10
27940;DHT22;15275;51.716;14.324;2022-12-18T05:04:41;0.40;80.20
27940;DHT22;15275;51.716;14.324;2022-12-18T05:07:07;0.40;80.10
27940;DHT22;15275;51.716;14.324;2022-12-18T05:09:33;0.40;80.10
27940;DHT22;15275;51.716;14.324;2022-12-18T05:11:59;0.40;80.20
27940;DHT22;15275;51.716;14.324;2022-12-18T05:14:24;0.50;80.20
27940;DHT22;15275;51.716;14.324;2022-12-18T05:16:50;0.50;80.30
27940;DHT22;15275;51.716;14.324;2022-12-18T05:19:16;0.50;80.30
27940;DHT22;15275;51.716;14.324;2022-12-18T05:21:42;0.50;80.30
27940;DHT22;15275;51.716;14.324;2022-12-18T05:24:08;0.60;80.30
27940;DHT22;15275;51.716;14.324;2022-12-18T05:26:34;0.60;80.30
27940;DHT22;15275;51.716;14.324;2022-12-18T05:29:00;0.60;80.20
27940;DHT22;15275;51.716;14.324;2022-12-18T05:31:26;0.60;80.10
27940;DHT22;15275;51.716;14.324;2022-12-18T05:33:52;0.60;80.10
27940;DHT22;15275;51.716;14.324;2022-12-18T05:36:17;0.60;80.10
27940;DHT22;15275;51.716;14.324;2022-12-18T05:38:43;0.60;80.00
27940;DHT22;15275;51.716;14.324;2022-12-18T05:41:10;0.70;79.80
27940;DHT22;15275;51.716;14.324;2022-12-18T05:43:37;0.60;79.80
27940;DHT22;15275;51.716;14.324;2022-12-18T05:46:11;0.60;79.80
27940;DHT22;15275;51.716;14.324;2022-12-18T05:48:39;0.60;79.80
27940;DHT22;15275;51.716;14.324;2022-12-18T05:51:13;0.60;79.70
27940;DHT22;15275;51.716;14.324;2022-12-18T05:53:41;0.60;79.80
27940;DHT22;15275;51.716;14.324;2022-12-18T05:56:19;0.60;79.80
27940;DHT22;15275;51.716;14.324;2022-12-18T05:58:46;0.60;79.80
27940;DHT22;15275;51.716;14.324;2022-12-18T06:01:19;0.60;79.70
27940;DHT22;15275;51.716;14.324;2022-12-18T06:03:47;0.60;79.80
27940;DHT22;15275;51.716;14.324;2022-12-18T06:06:18;0.50;79.80
27940;DHT22;15275;51.716;14.324;2022-12-18T06:08:45;0.50;79.90
27940;DHT22;15275;51.716;14.324;2022-12-18T06:11:12;0.50;80.00
27940;DHT22;15275;51.716;14.324;2022-12-18T06:13:38;0.50;80.00
27940;DHT22;15275;51.716;14.324;2022-12-18T06:16:05;0.50;79.80
27940;DHT22;15275;51.716;14.324;2022-12-18T06:18:32;0.50;79.70
27940;DHT22;15275;51.716;14.324;2022-12-18T06:20:59;0.50;79.60
27940;DHT22;15275;51.716;14.324;2022-12-18T06:23:25;0.40;79.70
27940;DHT22;15275;51.716;14.324;2022-12-18T06:25:52;0.40;79.70
27940;DHT22;15275;51.716;14.324;2022-12-18T06:28:18;0.40;79.70
27940;DHT22;15275;51.716;14.324;2022-12-18T06:30:47;0.40;79.70
27940;DHT22;15275;51.716;14.324;2022-12-18T06:33:14;0.40;79.80
27940;DHT22;15275;51.716;14.324;2022-12-18T06:35:41;0.40;79.70
27940;DHT22;15275;51.716;14.324;2022-12-18T06:38:07;0.40;79.80
27940;DHT22;15275;51.716;14.324;2022-12-18T06:40:33;0.40;79.90
27940;DHT22;15275;51.716;14.324;2022-12-18T06:42:59;0.40;80.00
27940;DHT22;15275;51.716;14.324;2022-12-18T06:45:25;0.40;79.90
27940;DHT22;15275;51.716;14.324;2022-12-18T06:47:51;0.40;79.90
27940;DHT22;15275;51.716;14.324;2022-12-18T06:50:17;0.40;79.80
27940;DHT22;15275;51.716;14.324;2022-12-18T06:52:43;0.40;79.80
27940;DHT22;15275;51.716;14.324;2022-12-18T06:55:10;0.40;79.80
27940;DHT22;15275;51.716;14.324;2022-12-18T06:57:37;0.40;79.90
27940;DHT22;15275;51.716;14.324;2022-12-18T07:00:05;0.40;79.90
27940;DHT22;15275;51.716;14.324;2022-12-18T07:02:32;0.40;79.90
27940;DHT22;15275;51.716;14.324;2022-12-18T07:04:58;0.40;79.90
27940;DHT22;15275;51.716;14.324;2022-12-18T07:07:24;0.40;79.90
27940;DHT22;15275;51.716;14.324;2022-12-18T07:09:51;0.40;79.90
27940;DHT22;15275;51.716;14.324;2022-12-18T07:12:17;0.40;80.00
27940;DHT22;15275;51.716;14.324;2022-12-18T07:14:43;0.40;80.00
27940;DHT22;15275;51.716;14.324;2022-12-18T07:17:09;0.40;79.90
27940;DHT22;15275;51.716;14.324;2022-12-18T07:19:35;0.50;79.90
27940;DHT22;15275;51.716;14.324;2022-12-18T07:22:01;0.50;79.90
27940;DHT22;15275;51.716;14.324;2022-12-18T07:24:27;0.50;80.00
27940;DHT22;15275;51.716;14.324;2022-12-18T07:26:53;0.50;79.90
27940;DHT22;15275;51.716;14.324;2022-12-18T07:29:20;0.50;79.90
27940;DHT22;15275;51.716;14.324;2022-12-18T07:31:46;0.50;79.90
27940;DHT22;15275;51.716;14.324;2022-12-18T07:34:13;0.60;80.00
27940;DHT22;15275;51.716;14.324;2022-12-18T07:36:40;0.60;79.80
27940;DHT22;15275;51.716;14.324;2022-12-18T07:39:06;0.50;79.80
27940;DHT22;15275;51.716;14.324;2022-12-18T07:41:32;0.60;79.80
27940;DHT22;15275;51.716;14.324;2022-12-18T07:43:58;0.60;79.80
27940;DHT22;15275;51.716;14.324;2022-12-18T07:46:24;0.60;80.00
27940;DHT22;15275;51.716;14.324;2022-12-18T07:48:50;0.50;79.90
27940;DHT22;15275;51.716;14.324;2022-12-18T07:51:17;0.50;79.90
27940;DHT22;15275;51.716;14.324;2022-12-18T07:53:43;0.50;79.90
27940;DHT22;15275;51.716;14.324;2022-12-18T07:56:12;0.50;80.00
27940;DHT22;15275;51.716;14.324;2022-12-18T07:58:38;0.60;80.10
27940;DHT22;15275;51.716;14.324;2022-12-18T08:01:09;0.60;80.10
27940;DHT22;15275;51.716;14.324;2022-12-18T08:03:38;0.60;80.20
27940;DHT22;15275;51.716;14.324;2022-12-18T08:06:08;0.60;80.00
27940;DHT22;15275;51.716;14.324;2022-12-18T08:08:35;0.60;79.90
27940;DHT22;15275;51.716;14.324;2022-12-18T08:11:02;0.60;79.70
27940;DHT22;15275;51.716;14.324;2022-12-18T08:13:28;0.60;79.60
27940;DHT22;15275;51.716;14.324;2022-12-18T08:16:05;0.60;79.60
27940;DHT22;15275;51.716;14.324;2022-12-18T08:18:36;0.60;79.30
27940;DHT22;15275;51.716;14.324;2022-12-18T08:23:40;0.50;79.30
27940;DHT22;15275;51.716;14.324;2022-12-18T08:26:07;0.50;79.30
27940;DHT22;15275;51.716;14.324;2022-12-18T08:28:34;0.50;79.20
27940;DHT22;15275;51.716;14.324;2022-12-18T08:31:00;0.40;79.30
27940;DHT22;15275;51.716;14.324;2022-12-18T08:33:26;0.40;79.30
27940;DHT22;15275;51.716;14.324;2022-12-18T08:35:52;0.40;79.60
27940;DHT22;15275;51.716;14.324;2022-12-18T08:38:18;0.40;79.80
27940;DHT22;15275;51.716;14.324;2022-12-18T08:40:45;0.40;79.70
27940;DHT22;15275;51.716;14.324;2022-12-18T08:43:11;0.40;80.00
27940;DHT22;15275;51.716;14.324;2022-12-18T08:46:00;0.40;79.70
27940;DHT22;15275;51.716;14.324;2022-12-18T08:48:26;0.40;79.60
27940;DHT22;15275;51.716;14.324;2022-12-18T08:50:59;0.40;79.60
27940;DHT22;15275;51.716;14.324;2022-12-18T08:53:26;0.40;79.80
27940;DHT22;15275;51.716;14.324;2022-12-18T08:55:52;0.40;79.70
27940;DHT22;15275;51.716;14.324;2022-12-18T08:58:19;0.40;79.90
27940;DHT22;15275;51.716;14.324;2022-12-18T09:00:45;0.40;79.80
27940;DHT22;15275;51.716;14.324;2022-12-18T09:03:20;0.40;79.50
27940;DHT22;15275;51.716;14.324;2022-12-18T09:05:48;0.30;79.40
27940;DHT22;15275;51.716;14.324;2022-12-18T09:08:14;0.30;79.60
27940;DHT22;15275;51.716;14.324;2022-12-18T09:10:45;0.30;79.50
27940;DHT22;15275;51.716;14.324;2022-12-18T09:13:13;0.30;79.70
27940;DHT22;15275;51.716;14.324;2022-12-18T09:15:45;0.30;79.50
27940;DHT22;15275;51.716;14.324;2022-12-18T09:18:13;0.40;79.40
27940;DHT22;15275;51.716;14.324;2022-12-18T09:20:40;0.40;79.40
27940;DHT22;15275;51.716;14.324;2022-12-18T09:23:06;0.40;79.50
27940;DHT22;15275;51.716;14.324;2022-12-18T09:25:34;0.40;79.30
27940;DHT22;15275;51.716;14.324;2022-12-18T09:28:06;0.40;79.20
27940;DHT22;15275;51.716;14.324;2022-12-18T09:30:40;0.40;79.20
27940;DHT22;15275;51.716;14.324;2022-12-18T09:33:08;0.40;79.20
27940;DHT22;15275;51.716;14.324;2022-12-18T09:35:38;0.40;79.30
27940;DHT22;15275;51.716;14.324;2022-12-18T09:38:04;0.40;79.70
27940;DHT22;15275;51.716;14.324;2022-12-18T09:40:44;0.40;79.80
27940;DHT22;15275;51.716;14.324;2022-12-18T09:46:09;0.50;79.60
27940;DHT22;15275;51.716;14.324;2022-12-18T09:48:43;0.50;79.60
27940;DHT22;15275;51.716;14.324;2022-12-18T09:51:22;0.60;79.60
27940;DHT22;15275;51.716;14.324;2022-12-18T09:53:59;0.60;79.70
27940;DHT22;15275;51.716;14.324;2022-12-18T09:56:31;0.60;79.90
27940;DHT22;15275;51.716;14.324;2022-12-18T09:59:01;0.60;79.80
27940;DHT22;15275;51.716;14.324;2022-12-18T10:01:29;0.60;79.70
27940;DHT22;15275;51.716;14.324;2022-12-18T10:03:56;0.60;79.70
27940;DHT22;15275;51.716;14.324;2022-12-18T10:12:13;0.70;79.60
27940;DHT22;15275;51.716;14.324;2022-12-18T10:17:49;0.80;79.80
27940;DHT22;15275;51.716;14.324;2022-12-18T10:20:28;0.80;79.80
27940;DHT22;15275;51.716;14.324;2022-12-18T10:23:11;0.80;79.80
27940;DHT22;15275;51.716;14.324;2022-12-18T10:28:36;0.80;79.00
27940;DHT22;15275;51.716;14.324;2022-12-18T10:31:24;0.80;79.00
27940;DHT22;15275;51.716;14.324;2022-12-18T10:33:51;0.80;78.80
27940;DHT22;15275;51.716;14.324;2022-12-18T10:36:20;0.80;78.90
27940;DHT22;15275;51.716;14.324;2022-12-18T10:38:46;0.80;79.30
27940;DHT22;15275;51.716;14.324;2022-12-18T10:43:45;0.80;79.10
27940;DHT22;15275;51.716;14.324;2022-12-18T10:46:14;0.80;79.00
27940;DHT22;15275;51.716;14.324;2022-12-18T10:48:56;0.80;79.20
27940;DHT22;15275;51.716;14.324;2022-12-18T10:51:29;0.80;79.10
27940;DHT22;15275;51.716;14.324;2022-12-18T10:56:38;0.90;79.30
27940;DHT22;15275;51.716;14.324;2022-12-18T10:59:06;1.00;79.20
27940;DHT22;15275;51.716;14.324;2022-12-18T11:01:47;1.00;79.20
27940;DHT22;15275;51.716;14.324;2022-12-18T11:06:54;1.00;79.10
27940;DHT22;15275;51.716;14.324;2022-12-18T11:09:25;1.00;78.90
27940;DHT22;15275;51.716;14.324;2022-12-18T11:12:04;1.00;78.50
27940;DHT22;15275;51.716;14.324;2022-12-18T11:14:42;1.10;78.40
27940;DHT22;15275;51.716;14.324;2022-12-18T11:17:28;1.00;78.20
27940;DHT22;15275;51.716;14.324;2022-12-18T11:20:01;1.00;78.40
27940;DHT22;15275;51.716;14.324;2022-12-18T11:22:36;1.00;78.60
27940;DHT22;15275;51.716;14.324;2022-12-18T11:25:04;1.00;78.50
27940;DHT22;15275;51.716;14.324;2022-12-18T11:27:33;1.00;78.20
27940;DHT22;15275;51.716;14.324;2022-12-18T11:30:22;1.00;78.40
27940;DHT22;15275;51.716;14.324;2022-12-18T11:35:53;1.00;77.50
27940;DHT22;15275;51.716;14.324;2022-12-18T11:44:32;0.90;78.60
27940;DHT22;15275;51.716;14.324;2022-12-18T11:49:52;1.00;78.70
27940;DHT22;15275;51.716;14.324;2022-12-18T11:52:22;1.00;78.60
27940;DHT22;15275;51.716;14.324;2022-12-18T11:54:52;1.00;78.40
27940;DHT22;15275;51.716;14.324;2022-12-18T12:00:18;1.10;78.20
27940;DHT22;15275;51.716;14.324;2022-12-18T12:06:28;1.00;78.20
27940;DHT22;15275;51.716;14.324;2022-12-18T12:09:11;1.10;78.80
27940;DHT22;15275;51.716;14.324;2022-12-18T12:15:13;1.10;78.80
27940;DHT22;15275;51.716;14.324;2022-12-18T12:17:59;1.10;78.90
27940;DHT22;15275;51.716;14.324;2022-12-18T12:29:23;1.30;78.30
27940;DHT22;15275;51.716;14.324;2022-12-18T12:32:38;1.30;78.40
27940;DHT22;15275;51.716;14.324;2022-12-18T12:38:05;1.40;78.70
27940;DHT22;15275;51.716;14.324;2022-12-18T12:40:38;1.40;78.50
27940;DHT22;15275;51.716;14.324;2022-12-18T12:43:27;1.50;78.50
27940;DHT22;15275;51.716;14.324;2022-12-18T12:46:12;1.50;77.90
27940;DHT22;15275;51.716;14.324;2022-12-18T12:48:49;1.50;77.80
27940;DHT22;15275;51.716;14.324;2022-12-18T12:51:27;1.50;77.40
27940;DHT22;15275;51.716;14.324;2022-12-18T12:53:56;1.40;77.10
27940;DHT22;15275;51.716;14.324;2022-12-18T12:56:29;1.40;77.00
27940;DHT22;15275;51.716;14.324;2022-12-18T13:00:09;1.40;77.20
27940;DHT22;15275;51.716;14.324;2022-12-18T13:02:56;1.30;77.00
27940;DHT22;15275;51.716;14.324;2022-12-18T13:08:27;1.20;77.50
27940;DHT22;15275;51.716;14.324;2022-12-18T13:10:55;1.20;77.50
27940;DHT22;15275;51.716;14.324;2022-12-18T13:16:22;1.20;77.40
27940;DHT22;15275;51.716;14.324;2022-12-18T13:18:58;1.10;77.30
27940;DHT22;15275;51.716;14.324;2022-12-18T13:21:26;1.10;77.30
27940;DHT22;15275;51.716;14.324;2022-12-18T13:23:54;1.10;77.30
27940;DHT22;15275;51.716;14.324;2022-12-18T13:28:53;1.10;77.50
27940;DHT22;15275;51.716;14.324;2022-12-18T13:34:20;1.10;76.90
27940;DHT22;15275;51.716;14.324;2022-12-18T13:36:47;1.10;77.20
27940;DHT22;15275;51.716;14.324;2022-12-18T13:41:41;1.00;76.90
27940;DHT22;15275;51.716;14.324;2022-12-18T13:47:04;1.00;76.90
27940;DHT22;15275;51.716;14.324;2022-12-18T13:49:40;1.00;77.00
27940;DHT22;15275;51.716;14.324;2022-12-18T13:52:34;0.90;76.90
27940;DHT22;15275;51.716;14.324;2022-12-18T13:55:06;0.90;76.60
27940;DHT22;15275;51.716;14.324;2022-12-18T13:57:37;0.90;77.00
27940;DHT22;15275;51.716;14.324;2022-12-18T14:02:50;0.90;76.90
27940;DHT22;15275;51.716;14.324;2022-12-18T14:08:08;0.90;77.00
27940;DHT22;15275;51.716;14.324;2022-12-18T14:10:41;0.80;77.10
27940;DHT22;15275;51.716;14.324;2022-12-18T14:13:09;0.80;77.00
27940;DHT22;15275;51.716;14.324;2022-12-18T14:18:20;0.80;76.90
27940;DHT22;15275;51.716;14.324;2022-12-18T14:20:49;0.80;76.70
27940;DHT22;15275;51.716;14.324;2022-12-18T14:23:33;0.80;76.70
27940;DHT22;15275;51.716;14.324;2022-12-18T14:26:26;0.70;76.50
27940;DHT22;15275;51.716;14.324;2022-12-18T14:29:17;0.70;76.30
27940;DHT22;15275;51.716;14.324;2022-12-18T14:32:13;0.60;76.40
27940;DHT22;15275;51.716;14.324;2022-12-18T14:34:43;0.50;76.20
27940;DHT22;15275;51.716;14.324;2022-12-18T14:37:15;0.50;76.30
27940;DHT22;15275;51.716;14.324;2022-12-18T14:39:57;0.40;76.10
27940;DHT22;15275;51.716;14.324;2022-12-18T14:42:28;0.30;76.20
27940;DHT22;15275;51.716;14.324;2022-12-18T14:48:21;0.20;76.30
27940;DHT22;15275;51.716;14.324;2022-12-18T14:50:56;0.20;76.30
27940;DHT22;15275;51.716;14.324;2022-12-18T14:56:00;0.10;76.50
27940;DHT22;15275;51.716;14.324;2022-12-18T14:58:27;0.00;76.30
27940;DHT22;15275;51.716;14.324;2022-12-18T15:00:53;0.00;76.50
27940;DHT22;15275;51.716;14.324;2022-12-18T15:03:20;0.00;76.40
27940;DHT22;15275;51.716;14.324;2022-12-18T15:05:47;-0.10;76.60
27940;DHT22;15275;51.716;14.324;2022-12-18T15:08:36;-0.10;76.40
27940;DHT22;15275;51.716;14.324;2022-12-18T15:11:03;-0.10;76.60
27940;DHT22;15275;51.716;14.324;2022-12-18T15:13:28;-0.20;76.70
27940;DHT22;15275;51.716;14.324;2022-12-18T15:15:57;-0.20;76.80
27940;DHT22;15275;51.716;14.324;2022-12-18T15:18:33;-0.20;76.90
27940;DHT22;15275;51.716;14.324;2022-12-18T15:21:09;-0.20;77.10
27940;DHT22;15275;51.716;14.324;2022-12-18T15:26:13;-0.30;76.80
27940;DHT22;15275;51.716;14.324;2022-12-18T15:28:52;-0.30;76.70
27940;DHT22;15275;51.716;14.324;2022-12-18T15:31:31;-0.30;76.80
27940;DHT22;15275;51.716;14.324;2022-12-18T15:34:13;-0.40;76.80
27940;DHT22;15275;51.716;14.324;2022-12-18T15:36:44;-0.40;76.70
27940;DHT22;15275;51.716;14.324;2022-12-18T15:39:12;-0.50;76.70
27940;DHT22;15275;51.716;14.324;2022-12-18T15:41:38;-0.50;76.60
27940;DHT22;15275;51.716;14.324;2022-12-18T15:44:22;-0.50;76.60
27940;DHT22;15275;51.716;14.324;2022-12-18T15:46:49;-0.60;76.60
27940;DHT22;15275;51.716;14.324;2022-12-18T15:49:15;-0.60;76.60
27940;DHT22;15275;51.716;14.324;2022-12-18T15:51:41;-0.70;76.60
27940;DHT22;15275;51.716;14.324;2022-12-18T15:54:12;-0.70;76.50
27940;DHT22;15275;51.716;14.324;2022-12-18T15:56:39;-0.70;76.60
27940;DHT22;15275;51.716;14.324;2022-12-18T15:59:24;-0.80;76.40
27940;DHT22;15275;51.716;14.324;2022-12-18T16:01:51;-0.80;76.60
27940;DHT22;15275;51.716;14.324;2022-12-18T16:04:22;-0.90;76.60
27940;DHT22;15275;51.716;14.324;2022-12-18T16:06:49;-0.90;76.60
27940;DHT22;15275;51.716;14.324;2022-12-18T16:09:17;-0.90;76.60
27940;DHT22;15275;51.716;14.324;2022-12-18T16:11:43;-1.00;76.60
27940;DHT22;15275;51.716;14.324;2022-12-18T16:14:14;-1.00;76.60
27940;DHT22;15275;51.716;14.324;2022-12-18T16:16:46;-1.10;76.60
27940;DHT22;15275;51.716;14.324;2022-12-18T16:19:14;-1.10;76.70
27940;DHT22;15275;51.716;14.324;2022-12-18T16:21:40;-1.10;76.80
27940;DHT22;15275;51.716;14.324;2022-12-18T16:24:16;-1.20;76.60
27940;DHT22;15275;51.716;14.324;2022-12-18T16:26:43;-1.20;76.80
27940;DHT22;15275;51.716;14.324;2022-12-18T16:29:09;-1.20;76.90
27940;DHT22;15275;51.716;14.324;2022-12-18T16:31:36;-1.30;76.90
27940;DHT22;15275;51.716;14.324;2022-12-18T16:34:15;-1.30;77.00
27940;DHT22;15275;51.716;14.324;2022-12-18T16:36:50;-1.30;77.00
27940;DHT22;15275;51.716;14.324;2022-12-18T16:39:17;-1.40;76.90
27940;DHT22;15275;51.716;14.324;2022-12-18T16:41:43;-1.40;76.90
27940;DHT22;15275;51.716;14.324;2022-12-18T16:44:09;-1.40;77.00
27940;DHT22;15275;51.716;14.324;2022-12-18T16:46:36;-1.40;77.00
27940;DHT22;15275;51.716;14.324;2022-12-18T16:49:03;-1.40;77.00
27940;DHT22;15275;51.716;14.324;2022-12-18T16:51:29;-1.50;77.00
27940;DHT22;15275;51.716;14.324;2022-12-18T16:53:58;-1.50;77.10
27940;DHT22;15275;51.716;14.324;2022-12-18T16:56:24;-1.50;77.00
27940;DHT22;15275;51.716;14.324;2022-12-18T16:58:52;-1.60;77.10
27940;DHT22;15275;51.716;14.324;2022-12-18T17:01:19;-1.60;77.20
27940;DHT22;15275;51.716;14.324;2022-12-18T17:04:05;-1.60;77.20
27940;DHT22;15275;51.716;14.324;2022-12-18T17:06:35;-1.60;77.40
27940;DHT22;15275;51.716;14.324;2022-12-18T17:09:06;-1.70;77.40
27940;DHT22;15275;51.716;14.324;2022-12-18T17:11:34;-1.70;77.50
27940;DHT22;15275;51.716;14.324;2022-12-18T17:14:09;-1.70;77.60
27940;DHT22;15275;51.716;14.324;2022-12-18T17:16:37;-1.70;77.80
27940;DHT22;15275;51.716;14.324;2022-12-18T17:19:04;-1.70;77.60
27940;DHT22;15275;51.716;14.324;2022-12-18T17:21:30;-1.70;77.70
27940;DHT22;15275;51.716;14.324;2022-12-18T17:23:58;-1.70;77.70
27940;DHT22;15275;51.716;14.324;2022-12-18T17:26:26;-1.70;77.70
27940;DHT22;15275;51.716;14.324;2022-12-18T17:28:52;-1.70;77.70
27940;DHT22;15275;51.716;14.324;2022-12-18T17:31:21;-1.70;77.70
27940;DHT22;15275;51.716;14.324;2022-12-18T17:33:49;-1.70;77.60
27940;DHT22;15275;51.716;14.324;2022-12-18T17:36:15;-1.70;77.60
27940;DHT22;15275;51.716;14.324;2022-12-18T17:38:52;-1.80;77.60
27940;DHT22;15275;51.716;14.324;2022-12-18T17:41:19;-1.70;77.60
27940;DHT22;15275;51.716;14.324;2022-12-18T17:43:56;-1.80;77.50
27940;DHT22;15275;51.716;14.324;2022-12-18T17:46:24;-1.80;77.40
27940;DHT22;15275;51.716;14.324;2022-12-18T17:48:52;-1.80;77.40